createdAt,value
2023-01-06T00:02:29.369Z,99.40
2023-01-06T00:05:07.806Z,99.30
2023-01-06T00:07:41.451Z,99.30
2023-01-06T00:10:10.839Z,99.40
2023-01-06T00:12:40.112Z,99.40
2023-01-06T00:15:09.310Z,99.30
2023-01-06T00:17:39.169Z,99.40
2023-01-06T00:20:08.809Z,99.40
2023-01-06T00:22:48.305Z,99.40
2023-01-06T00:25:18.419Z,99.30
2023-01-06T00:27:48.489Z,99.40
2023-01-06T00:30:22.028Z,99.40
2023-01-06T00:32:54.031Z,99.40
2023-01-06T00:38:18.661Z,99.40
2023-01-06T00:40:47.162Z,99.40
2023-01-06T00:43:15.319Z,99.40
2023-01-06T00:45:43.763Z,99.40
2023-01-06T00:48:45.086Z,99.40
2023-01-06T00:55:23.019Z,99.40
2023-01-06T01:01:09.614Z,99.40
2023-01-06T01:03:53.268Z,99.40
2023-01-06T01:06:33.090Z,99.40
2023-01-06T01:09:12.208Z,99.40
2023-01-06T01:12:14.333Z,99.40
2023-01-06T01:14:49.067Z,99.40
2023-01-06T01:17:26.533Z,99.40
2023-01-06T01:20:19.340Z,99.40
2023-01-06T01:23:04.347Z,99.40
2023-01-06T01:28:57.856Z,99.50
2023-01-06T01:37:03.574Z,99.50
2023-01-06T01:39:34.181Z,99.50
2023-01-06T01:42:02.504Z,99.50
2023-01-06T01:44:57.977Z,99.50
2023-01-06T01:47:31.737Z,99.60
2023-01-06T01:50:04.523Z,99.60
2023-01-06T01:52:34.848Z,99.60
2023-01-06T01:55:04.140Z,99.60
2023-01-06T01:57:36.679Z,99.60
2023-01-06T02:00:10.112Z,99.60
2023-01-06T02:02:39.438Z,99.60
2023-01-06T02:05:09.355Z,99.60
2023-01-06T02:07:39.379Z,99.60
2023-01-06T02:10:13.768Z,99.60
2023-01-06T02:12:42.985Z,99.60
2023-01-06T02:15:22.504Z,99.60
2023-01-06T02:18:23.566Z,99.60
2023-01-06T02:21:07.784Z,99.70
2023-01-06T02:24:11.035Z,99.60
2023-01-06T02:27:17.061Z,99.60
2023-01-06T02:30:21.896Z,99.60
2023-01-06T02:33:03.988Z,99.60
2023-01-06T02:35:47.498Z,99.60
2023-01-06T02:38:29.481Z,99.60
2023-01-06T02:41:11.928Z,99.70
2023-01-06T02:43:50.861Z,99.70
2023-01-06T02:46:29.129Z,99.70
2023-01-06T02:49:08.872Z,99.70
2023-01-06T02:51:45.714Z,99.70
2023-01-06T02:54:21.151Z,99.70
2023-01-06T02:56:53.476Z,99.70
2023-01-06T02:59:27.324Z,99.60
2023-01-06T03:01:57.180Z,99.70
2023-01-06T03:04:31.954Z,99.70
2023-01-06T03:07:03.499Z,99.70
2023-01-06T03:09:34.987Z,99.70
2023-01-06T03:12:08.553Z,99.70
2023-01-06T03:14:42.294Z,99.70
2023-01-06T03:17:10.430Z,99.60
2023-01-06T03:19:43.041Z,99.60
2023-01-06T03:22:12.231Z,99.60
2023-01-06T03:24:41.844Z,99.60
2023-01-06T03:27:10.553Z,99.60
2023-01-06T03:29:40.268Z,99.60
2023-01-06T03:32:16.211Z,99.60
2023-01-06T03:35:09.656Z,99.50
2023-01-06T03:37:47.967Z,99.50
2023-01-06T03:40:28.372Z,99.50
2023-01-06T03:43:16.457Z,99.50
2023-01-06T03:45:56.632Z,99.50
2023-01-06T03:48:34.881Z,99.50
2023-01-06T03:51:11.145Z,99.50
2023-01-06T03:53:44.406Z,99.50
2023-01-06T03:56:20.165Z,99.50
2023-01-06T03:58:51.901Z,99.50
2023-01-06T04:01:21.150Z,99.50
2023-01-06T04:03:52.730Z,99.50
2023-01-06T04:06:23.185Z,99.50
2023-01-06T04:08:51.503Z,99.50
2023-01-06T04:11:37.716Z,99.50
2023-01-06T04:14:05.877Z,99.40
2023-01-06T04:16:34.431Z,99.40
2023-01-06T04:19:02.576Z,99.40
2023-01-06T04:21:32.189Z,99.50
2023-01-06T04:24:00.349Z,99.40
2023-01-06T04:26:30.310Z,99.40
2023-01-06T04:28:58.746Z,99.40
2023-01-06T04:31:26.943Z,99.40
2023-01-06T04:33:55.189Z,99.40
2023-01-06T04:36:23.625Z,99.40
2023-01-06T04:38:53.249Z,99.40
2023-01-06T04:41:21.970Z,99.40
2023-01-06T04:43:50.640Z,99.40
2023-01-06T04:46:18.747Z,99.40
2023-01-06T04:48:47.043Z,99.40
2023-01-06T04:51:15.038Z,99.40
2023-01-06T04:53:43.452Z,99.40
2023-01-06T04:56:14.073Z,99.40
2023-01-06T04:58:42.080Z,99.40
2023-01-06T05:01:12.430Z,99.30
2023-01-06T05:03:41.260Z,99.40
2023-01-06T05:06:11.651Z,99.30
2023-01-06T05:08:40.742Z,99.30
2023-01-06T05:11:10.661Z,99.30
2023-01-06T05:13:40.683Z,99.30
2023-01-06T05:16:11.341Z,99.30
2023-01-06T05:18:40.739Z,99.30
2023-01-06T05:21:09.413Z,99.30
2023-01-06T05:23:38.694Z,99.30
2023-01-06T05:26:07.241Z,99.30
2023-01-06T05:28:35.497Z,99.30
2023-01-06T05:31:06.422Z,99.30
2023-01-06T05:33:35.951Z,99.30
2023-01-06T05:36:12.479Z,99.30
2023-01-06T05:38:40.713Z,99.30
2023-01-06T05:41:09.074Z,99.30
2023-01-06T05:43:38.661Z,99.40
2023-01-06T05:46:10.240Z,99.30
2023-01-06T05:48:40.681Z,99.30
2023-01-06T05:51:11.453Z,99.30
2023-01-06T05:53:41.788Z,99.30
2023-01-06T05:56:11.685Z,99.30
2023-01-06T05:58:41.154Z,99.20
2023-01-06T06:01:17.925Z,99.30
2023-01-06T06:03:46.354Z,99.30
2023-01-06T06:06:14.553Z,99.30
2023-01-06T06:08:42.881Z,99.30
2023-01-06T06:11:12.816Z,99.30
2023-01-06T06:13:46.311Z,99.30
2023-01-06T06:16:18.386Z,99.30
2023-01-06T06:18:50.957Z,99.30
2023-01-06T06:21:20.974Z,99.30
2023-01-06T06:23:49.604Z,99.40
2023-01-06T06:26:19.540Z,99.30
2023-01-06T06:28:47.660Z,99.30
2023-01-06T06:31:21.020Z,99.30
2023-01-06T06:33:52.117Z,99.40
2023-01-06T06:36:20.586Z,99.40
2023-01-06T06:38:50.263Z,99.40
2023-01-06T06:41:19.306Z,99.40
2023-01-06T06:43:49.047Z,99.40
2023-01-06T06:46:19.264Z,99.40
2023-01-06T06:48:47.554Z,99.40
2023-01-06T06:51:19.353Z,99.50
2023-01-06T06:53:48.130Z,99.50
2023-01-06T06:56:17.769Z,99.50
2023-01-06T06:58:48.096Z,99.40
2023-01-06T07:01:19.305Z,99.40
2023-01-06T07:03:47.964Z,99.50
2023-01-06T07:06:21.463Z,99.50
2023-01-06T07:08:50.601Z,99.50
2023-01-06T07:11:19.375Z,99.60
2023-01-06T07:13:48.194Z,99.50
2023-01-06T07:16:17.926Z,99.50
2023-01-06T07:19:00.283Z,99.50
2023-01-06T07:21:31.732Z,99.50
2023-01-06T07:24:03.481Z,99.40
2023-01-06T07:26:35.604Z,99.40
2023-01-06T07:29:08.898Z,99.40
2023-01-06T07:31:39.768Z,99.40
2023-01-06T07:34:15.388Z,99.50
2023-01-06T07:36:46.195Z,99.40
2023-01-06T07:39:16.705Z,99.40
2023-01-06T07:41:45.081Z,99.40
2023-01-06T07:44:15.651Z,99.40
2023-01-06T07:46:56.620Z,99.40
2023-01-06T07:49:29.498Z,99.50
2023-01-06T07:52:08.624Z,99.40
2023-01-06T07:54:51.574Z,99.50
2023-01-06T07:57:49.237Z,99.40
2023-01-06T08:00:19.466Z,99.40
2023-01-06T08:03:01.501Z,99.60
2023-01-06T08:05:44.181Z,99.50
2023-01-06T08:08:13.649Z,99.60
2023-01-06T08:10:43.979Z,99.50
2023-01-06T08:13:19.619Z,99.50
2023-01-06T08:15:54.941Z,99.50
2023-01-06T08:18:36.672Z,99.50
2023-01-06T08:21:10.482Z,99.60
2023-01-06T08:24:00.426Z,99.50
2023-01-06T08:26:32.074Z,99.60
2023-01-06T08:29:01.251Z,99.50
2023-01-06T08:31:30.665Z,99.70
2023-01-06T08:34:17.724Z,99.50
2023-01-06T08:36:58.014Z,99.40
2023-01-06T08:43:14.919Z,99.50
2023-01-06T08:45:50.425Z,99.50
2023-01-06T09:05:02.487Z,99.50
2023-01-06T09:08:09.170Z,99.50
2023-01-06T09:11:13.916Z,99.60
2023-01-06T09:16:30.645Z,99.50
2023-01-06T09:22:00.209Z,99.60
2023-01-06T09:24:29.451Z,99.80
2023-01-06T09:27:01.911Z,99.80
2023-01-06T09:29:30.432Z,99.80
2023-01-06T09:31:58.476Z,99.80
2023-01-06T09:34:26.728Z,99.70
2023-01-06T09:36:56.769Z,99.90
2023-01-06T09:39:28.196Z,99.80
2023-01-06T09:42:18.906Z,99.90
2023-01-06T09:44:51.920Z,99.60
2023-01-06T09:47:25.683Z,99.80
2023-01-06T09:49:57.434Z,99.80
2023-01-06T09:52:30.552Z,99.90
2023-01-06T09:55:02.299Z,99.90
2023-01-06T09:57:34.744Z,99.80
2023-01-06T10:00:06.339Z,99.90
2023-01-06T10:02:38.839Z,99.80
2023-01-06T10:05:20.937Z,99.80
2023-01-06T10:07:58.824Z,99.80
2023-01-06T10:30:22.110Z,99.90
2023-01-06T10:32:51.961Z,99.80
2023-01-06T10:35:23.836Z,99.90
2023-01-06T10:37:53.667Z,99.90
2023-01-06T10:40:25.640Z,99.90
2023-01-06T10:42:57.234Z,99.90
2023-01-06T10:45:30.113Z,99.90
2023-01-06T10:47:59.391Z,99.90
2023-01-06T10:50:28.292Z,99.90
2023-01-06T10:52:56.577Z,99.90
2023-01-06T10:55:35.642Z,99.90
2023-01-06T10:58:12.971Z,99.90
2023-01-06T11:00:57.496Z,99.90
2023-01-06T11:03:33.288Z,99.90
2023-01-06T11:06:06.260Z,99.90
2023-01-06T11:08:36.429Z,99.90
2023-01-06T11:11:26.733Z,99.90
2023-01-06T11:13:59.151Z,99.90
2023-01-06T11:16:31.563Z,99.90
2023-01-06T11:19:03.997Z,99.90
2023-01-06T11:21:41.495Z,99.90
2023-01-06T11:24:21.103Z,99.90
2023-01-06T11:26:53.984Z,99.90
2023-01-06T11:29:32.044Z,99.90
2023-01-06T11:32:06.403Z,99.90
2023-01-06T11:34:35.145Z,99.90
2023-01-06T11:37:03.500Z,99.90
2023-01-06T11:39:37.543Z,99.90
2023-01-06T11:42:12.298Z,99.90
2023-01-06T11:44:42.228Z,99.90
2023-01-06T11:47:16.404Z,99.90
2023-01-06T11:49:49.792Z,99.90
2023-01-06T11:52:24.478Z,99.90
2023-01-06T11:55:02.663Z,99.90
2023-01-06T11:57:41.439Z,99.90
2023-01-06T12:00:33.397Z,99.90
2023-01-06T12:03:12.650Z,99.90
2023-01-06T12:05:48.793Z,99.90
2023-01-06T12:08:21.681Z,99.90
2023-01-06T12:10:55.914Z,99.90
2023-01-06T12:13:25.152Z,99.90
2023-01-06T12:16:01.271Z,99.90
2023-01-06T12:18:34.372Z,99.90
2023-01-06T12:21:07.342Z,99.90
2023-01-06T12:23:39.570Z,99.90
2023-01-06T12:26:14.978Z,99.90
2023-01-06T12:28:48.576Z,99.90
2023-01-06T12:31:21.220Z,99.90
2023-01-06T12:33:56.182Z,99.90
2023-01-06T12:36:31.247Z,99.90
2023-01-06T12:39:02.933Z,99.90
2023-01-06T12:41:37.313Z,99.90
2023-01-06T12:44:16.916Z,99.90
2023-01-06T12:46:55.889Z,99.90
2023-01-06T12:49:34.290Z,99.90
2023-01-06T12:52:08.234Z,99.90
2023-01-06T12:54:37.225Z,99.90
2023-01-06T12:57:21.084Z,99.90
2023-01-06T13:00:07.737Z,99.90
2023-01-06T13:02:53.895Z,99.90
2023-01-06T13:05:37.164Z,99.90
2023-01-06T13:08:22.563Z,99.90
2023-01-06T13:10:57.605Z,99.90
2023-01-06T13:13:39.375Z,99.90
2023-01-06T13:16:18.342Z,99.90
2023-01-06T13:18:58.417Z,99.90
2023-01-06T13:21:29.352Z,99.90
2023-01-06T13:27:49.344Z,99.90
2023-01-06T13:30:35.918Z,99.90
2023-01-06T13:33:40.702Z,99.90
2023-01-06T13:36:34.870Z,99.90
2023-01-06T13:39:08.626Z,99.90
2023-01-06T13:41:38.732Z,99.90
2023-01-06T13:44:13.631Z,99.90
2023-01-06T13:46:42.755Z,99.90
2023-01-06T13:49:12.971Z,99.90
2023-01-06T13:51:44.384Z,99.90
2023-01-06T13:54:46.013Z,99.90
2023-01-06T13:57:38.210Z,99.90
2023-01-06T14:00:29.044Z,99.90
2023-01-06T14:03:27.672Z,99.90
2023-01-06T14:06:00.203Z,99.90
2023-01-06T14:08:41.012Z,99.90
2023-01-06T14:11:30.896Z,99.90
2023-01-06T14:14:03.677Z,99.90
2023-01-06T14:16:43.127Z,99.90
2023-01-06T14:19:19.019Z,99.90
2023-01-06T14:21:48.570Z,99.90
2023-01-06T14:24:28.949Z,99.90
2023-01-06T14:27:01.378Z,99.90
2023-01-06T14:30:03.828Z,99.90
2023-01-06T14:33:05.364Z,99.90
2023-01-06T14:35:37.495Z,99.90
2023-01-06T14:38:08.386Z,99.90
2023-01-06T14:40:40.437Z,99.90
2023-01-06T14:43:35.571Z,99.90
2023-01-06T14:46:26.452Z,99.90
2023-01-06T14:49:00.430Z,99.90
2023-01-06T14:51:30.611Z,99.90
2023-01-06T14:54:04.513Z,99.90
2023-01-06T14:56:36.106Z,99.90
2023-01-06T14:59:13.107Z,99.90
2023-01-06T15:01:58.245Z,99.90
2023-01-06T15:04:31.074Z,99.90
2023-01-06T15:07:17.986Z,99.90
2023-01-06T15:09:47.273Z,99.90
2023-01-06T15:12:26.520Z,99.90
2023-01-06T15:14:55.028Z,99.90
2023-01-06T15:17:24.917Z,99.90
2023-01-06T15:19:53.939Z,99.90
2023-01-06T15:22:24.611Z,99.90
2023-01-06T15:24:53.400Z,99.90
2023-01-06T15:27:22.708Z,99.90
2023-01-06T15:29:53.765Z,99.90
2023-01-06T15:32:25.736Z,99.90
2023-01-06T15:34:56.842Z,99.90
2023-01-06T15:37:27.434Z,99.90
2023-01-06T15:39:56.301Z,99.90
2023-01-06T15:42:26.155Z,99.90
2023-01-06T15:44:58.624Z,99.90
2023-01-06T15:47:34.513Z,99.90
2023-01-06T15:50:04.626Z,99.90
2023-01-06T15:52:35.571Z,99.90
2023-01-06T15:55:06.725Z,99.90
2023-01-06T15:57:38.567Z,99.90
2023-01-06T16:00:09.449Z,99.80
2023-01-06T16:02:39.247Z,99.80
2023-01-06T16:05:08.113Z,99.80
2023-01-06T16:07:41.237Z,99.80
2023-01-06T16:10:35.703Z,99.80
2023-01-06T16:13:28.300Z,99.70
2023-01-06T16:16:01.523Z,99.70
2023-01-06T16:18:33.254Z,99.70
2023-01-06T16:21:13.195Z,99.70
2023-01-06T16:23:41.772Z,99.60
2023-01-06T16:26:15.195Z,99.60
2023-01-06T16:28:47.985Z,99.60
2023-01-06T16:31:29.203Z,99.60
2023-01-06T16:34:16.354Z,99.60
2023-01-06T16:36:44.960Z,99.60
2023-01-06T16:39:15.533Z,99.50
2023-01-06T16:42:34.084Z,99.50
2023-01-06T16:45:05.448Z,99.50
2023-01-06T16:47:33.722Z,99.50
2023-01-06T16:50:15.803Z,99.50
2023-01-06T16:52:45.827Z,99.50
2023-01-06T16:55:15.792Z,99.50
2023-01-06T16:57:47.648Z,99.50
2023-01-06T17:00:18.315Z,99.50
2023-01-06T17:02:50.734Z,99.50
2023-01-06T17:05:28.420Z,99.50
2023-01-06T17:08:09.230Z,99.50
2023-01-06T17:10:37.607Z,99.50
2023-01-06T17:13:24.555Z,99.50
2023-01-06T17:15:57.971Z,99.40
2023-01-06T17:18:27.815Z,99.40
2023-01-06T17:21:02.279Z,99.40
2023-01-06T17:23:38.944Z,99.40
2023-01-06T17:26:17.003Z,99.40
2023-01-06T17:28:48.431Z,99.40
2023-01-06T17:31:20.821Z,99.40
2023-01-06T17:33:55.547Z,99.40
2023-01-06T17:40:03.432Z,99.40
2023-01-06T17:42:40.172Z,99.40
2023-01-06T17:45:31.773Z,99.40
2023-01-06T17:48:24.402Z,99.40
2023-01-06T17:51:11.952Z,99.40
2023-01-06T17:58:15.162Z,99.40
2023-01-06T18:00:49.144Z,99.50
2023-01-06T18:03:20.695Z,99.40
2023-01-06T18:06:08.149Z,99.40
2023-01-06T18:08:46.860Z,99.50
2023-01-06T18:11:49.778Z,99.40
2023-01-06T18:14:49.309Z,99.50
2023-01-06T18:17:48.458Z,99.40
2023-01-06T18:20:22.680Z,99.40
2023-01-06T18:23:24.768Z,99.40
2023-01-06T18:25:54.002Z,99.40
2023-01-06T18:28:24.310Z,99.40
2023-01-06T18:30:56.231Z,99.30
2023-01-06T18:33:44.777Z,99.30
2023-01-06T18:36:14.616Z,99.30
2023-01-06T18:38:44.832Z,99.20
2023-01-06T18:41:14.283Z,99.20
2023-01-06T18:43:45.391Z,99.20
2023-01-06T18:46:40.732Z,99.20
2023-01-06T18:49:32.423Z,99.20
2023-01-06T18:52:07.216Z,99.20
2023-01-06T19:12:49.437Z,99.20
2023-01-06T19:15:22.998Z,99.10
2023-01-06T19:23:40.751Z,99.10
2023-01-06T19:26:23.055Z,99.10
2023-01-06T19:28:59.352Z,99.10
2023-01-06T19:31:33.709Z,99.10
2023-01-06T19:34:06.382Z,99.10
2023-01-06T19:36:45.936Z,99.10
2023-01-06T19:39:32.619Z,99.10
2023-01-06T19:42:13.061Z,99.00
2023-01-06T19:44:42.350Z,98.90
2023-01-06T19:47:19.711Z,99.00
2023-01-06T19:49:53.380Z,99.00
2023-01-06T19:52:44.424Z,99.00
2023-01-06T19:55:26.999Z,98.90
2023-01-06T19:57:59.066Z,98.90
2023-01-06T20:00:30.949Z,98.90
2023-01-06T20:03:03.637Z,99.30
2023-01-06T20:05:34.456Z,98.90
2023-01-06T20:08:02.785Z,98.90
2023-01-06T20:10:36.319Z,98.90
2023-01-06T20:13:08.107Z,98.90
2023-01-06T20:15:36.349Z,98.90
2023-01-06T20:18:05.045Z,98.90
2023-01-06T20:20:34.497Z,98.90
2023-01-06T20:23:03.622Z,98.90
2023-01-06T20:25:36.765Z,98.90
2023-01-06T20:28:10.497Z,98.90
2023-01-06T20:30:38.695Z,98.90
2023-01-06T20:33:07.145Z,98.90
2023-01-06T20:35:36.098Z,98.90
2023-01-06T20:38:05.740Z,98.90
2023-01-06T20:40:35.851Z,98.90
2023-01-06T20:43:04.133Z,98.90
2023-01-06T20:45:35.777Z,98.90
2023-01-06T20:48:04.353Z,98.90
2023-01-06T20:50:35.113Z,98.90
2023-01-06T20:53:03.501Z,98.90
2023-01-06T20:55:32.135Z,99.00
2023-01-06T20:58:01.753Z,98.90
2023-01-06T21:00:31.338Z,98.90
2023-01-06T21:03:01.862Z,98.90
2023-01-06T21:05:30.970Z,98.90
2023-01-06T21:08:00.144Z,98.90
2023-01-06T21:10:32.497Z,99.00
2023-01-06T21:13:03.167Z,99.00
2023-01-06T21:15:36.775Z,99.00
2023-01-06T21:18:05.755Z,99.00
2023-01-06T21:20:34.363Z,99.00
2023-01-06T21:23:05.058Z,99.10
2023-01-06T21:25:35.046Z,99.10
2023-01-06T21:28:05.328Z,99.10
2023-01-06T21:30:33.989Z,99.10
2023-01-06T21:33:02.208Z,99.10
2023-01-06T21:35:35.335Z,99.10
2023-01-06T21:38:05.270Z,99.10
2023-01-06T21:40:34.834Z,99.10
2023-01-06T21:43:09.357Z,99.10
2023-01-06T21:45:38.122Z,99.20
2023-01-06T21:48:08.908Z,99.10
2023-01-06T21:50:40.240Z,99.10
2023-01-06T21:53:11.531Z,99.20
2023-01-06T21:55:41.755Z,99.20
2023-01-06T21:58:11.964Z,99.20
2023-01-06T22:00:40.283Z,99.10
2023-01-06T22:03:08.491Z,99.10
2023-01-06T22:05:36.815Z,99.10
2023-01-06T22:08:06.259Z,99.10
2023-01-06T22:10:34.578Z,99.10
2023-01-06T22:13:03.855Z,99.20
2023-01-06T22:15:34.806Z,99.20
2023-01-06T22:18:03.350Z,99.10
2023-01-06T22:20:33.368Z,99.20
2023-01-06T22:23:05.146Z,99.10
2023-01-06T22:25:33.227Z,99.10
2023-01-06T22:28:03.277Z,99.10
2023-01-06T22:30:35.975Z,99.00
2023-01-06T22:33:04.872Z,99.40
2023-01-06T22:35:33.097Z,99.10
2023-01-06T22:38:01.338Z,99.10
2023-01-06T22:40:29.562Z,99.10
2023-01-06T22:42:58.080Z,99.00
2023-01-06T22:45:26.411Z,99.10
2023-01-06T22:47:56.301Z,99.00
2023-01-06T22:50:24.888Z,99.10
2023-01-06T22:52:53.413Z,99.00
2023-01-06T22:55:21.824Z,99.00
2023-01-06T22:57:49.880Z,99.00
2023-01-06T23:00:20.469Z,99.00
2023-01-06T23:02:49.002Z,98.90
2023-01-06T23:05:18.855Z,99.00
2023-01-06T23:07:47.178Z,98.90
2023-01-06T23:10:16.128Z,99.00
2023-01-06T23:12:44.946Z,99.00
2023-01-06T23:15:13.722Z,98.90
2023-01-06T23:17:41.941Z,98.90
2023-01-06T23:20:11.208Z,98.90
2023-01-06T23:22:41.121Z,98.80
2023-01-06T23:25:09.730Z,98.90
2023-01-06T23:27:38.814Z,99.00
2023-01-06T23:30:08.255Z,98.90
2023-01-06T23:32:36.435Z,98.90
2023-01-06T23:35:05.026Z,98.90
2023-01-06T23:37:33.988Z,98.90
2023-01-06T23:40:03.485Z,98.90
2023-01-06T23:42:34.457Z,98.90
2023-01-06T23:45:06.009Z,98.90
2023-01-06T23:47:34.400Z,98.90
2023-01-06T23:50:02.511Z,98.90
2023-01-06T23:52:30.812Z,98.90
2023-01-06T23:54:59.110Z,98.90
2023-01-06T23:57:29.397Z,98.90
2023-01-06T23:59:57.527Z,98.90
